Time;durP1;ratioP1;P1;durP2;ratioP2;P2;SDS_P1;SDS_P2;PMS_P1;PMS_P2;Temp;Humidity;BMP_temperature;BMP_pressure;BME280_temperature;BME280_humidity;BME280_pressure;Samples;Min_cycle;Max_cycle;Signal;HPM_P1;HPM_P2
2022/03/06 00:01:59;;;;;;;18.52;13.63;;;0.70;99.90;;;;;;5072877;28;20090;-80
2022/03/06 00:04:25;;;;;;;19.55;14.13;;;0.70;99.90;;;;;;5072295;28;20040;-79
2022/03/06 00:06:51;;;;;;;16.85;13.13;;;0.80;99.90;;;;;;5068427;28;20072;-80
2022/03/06 00:09:16;;;;;;;17.50;13.35;;;0.80;99.90;;;;;;5065916;28;20049;-80
2022/03/06 00:11:42;;;;;;;17.60;13.38;;;0.80;99.90;;;;;;5059388;28;20128;-80
2022/03/06 00:14:07;;;;;;;18.10;14.05;;;0.80;99.90;;;;;;5060253;28;20055;-80
2022/03/06 00:16:33;;;;;;;17.33;12.48;;;0.80;99.90;;;;;;5057696;28;20041;-78
2022/03/06 00:18:59;;;;;;;15.95;13.00;;;0.90;99.90;;;;;;5052772;28;20037;-80
2022/03/06 00:21:24;;;;;;;21.05;13.77;;;0.90;99.90;;;;;;5070584;28;20048;-80
2022/03/06 00:23:50;;;;;;;19.92;14.50;;;0.90;99.90;;;;;;5069165;28;20211;-78
2022/03/06 00:26:15;;;;;;;17.02;13.48;;;1.00;99.90;;;;;;5063100;28;20098;-79
2022/03/06 00:28:41;;;;;;;14.35;12.75;;;1.00;99.90;;;;;;5067384;28;20102;-80
2022/03/06 00:31:07;;;;;;;17.77;12.73;;;1.00;99.90;;;;;;5071552;28;20119;-78
2022/03/06 00:33:33;;;;;;;22.35;12.90;;;1.10;99.90;;;;;;5070467;28;20045;-78
2022/03/06 00:35:58;;;;;;;18.35;13.60;;;1.10;99.90;;;;;;5069538;28;20095;-79
2022/03/06 00:38:24;;;;;;;22.50;12.38;;;1.10;99.90;;;;;;5067711;28;20044;-80
2022/03/06 00:40:49;;;;;;;15.20;12.60;;;1.20;99.90;;;;;;5070877;28;20125;-80
2022/03/06 00:43:15;;;;;;;16.60;10.75;;;1.20;99.90;;;;;;5070697;28;20126;-80
2022/03/06 00:45:42;;;;;;;16.58;10.95;;;1.30;99.90;;;;;;5071958;28;20098;-80
2022/03/06 00:48:07;;;;;;;18.25;10.60;;;1.40;99.90;;;;;;5065960;28;20498;-80
2022/03/06 00:50:37;;;;;;;16.77;10.43;;;1.40;99.90;;;;;;5058648;28;20119;-80
2022/03/06 00:53:03;;;;;;;15.10;10.60;;;1.50;99.90;;;;;;5060719;28;20040;-78
2022/03/06 00:55:30;;;;;;;15.82;9.68;;;1.50;99.90;;;;;;5068674;28;20494;-80
2022/03/06 00:57:56;;;;;;;11.02;9.88;;;1.60;99.90;;;;;;5069732;28;20096;-79
2022/03/06 01:00:23;;;;;;;13.93;10.40;;;1.60;99.90;;;;;;5070739;28;20483;-80
2022/03/06 01:02:48;;;;;;;13.88;10.13;;;1.50;99.90;;;;;;5068999;28;20135;-80
2022/03/06 01:05:14;;;;;;;15.50;10.00;;;1.50;99.90;;;;;;5066454;28;20566;-80
2022/03/06 01:07:40;;;;;;;21.20;12.20;;;1.50;99.90;;;;;;5067477;28;20036;-80
2022/03/06 01:10:06;;;;;;;23.23;11.90;;;1.50;99.90;;;;;;5070137;28;20066;-80
2022/03/06 01:12:32;;;;;;;13.63;10.85;;;1.50;99.90;;;;;;5070044;28;20098;-81
2022/03/06 01:14:58;;;;;;;19.70;12.00;;;1.50;99.90;;;;;;5069337;28;20036;-79
2022/03/06 01:17:24;;;;;;;13.77;9.90;;;1.50;99.90;;;;;;5069252;28;20044;-79
2022/03/06 01:19:50;;;;;;;22.92;11.20;;;1.60;99.90;;;;;;5066383;28;20062;-79
2022/03/06 01:22:16;;;;;;;15.75;9.95;;;1.60;99.90;;;;;;5068948;28;20046;-79
2022/03/06 01:24:42;;;;;;;12.50;8.88;;;1.60;99.90;;;;;;5066539;28;20044;-80
2022/03/06 01:27:07;;;;;;;13.68;9.43;;;1.60;99.90;;;;;;5064609;28;20394;-79
2022/03/06 01:29:33;;;;;;;19.45;9.52;;;1.60;99.90;;;;;;5052893;28;20033;-78
2022/03/06 01:31:59;;;;;;;12.18;8.70;;;1.60;99.90;;;;;;5067910;28;20156;-79
2022/03/06 01:34:24;;;;;;;12.52;9.27;;;1.60;99.90;;;;;;5054726;28;20494;-80
2022/03/06 01:36:50;;;;;;;11.65;9.38;;;1.60;99.90;;;;;;5054672;28;20079;-79
2022/03/06 01:39:16;;;;;;;17.88;11.43;;;1.60;99.90;;;;;;5062164;28;20484;-80
2022/03/06 01:41:41;;;;;;;14.13;9.13;;;1.60;99.90;;;;;;5068777;28;20044;-80
2022/03/06 01:44:12;;;;;;;17.30;11.32;;;1.60;99.90;;;;;;5055831;28;20041;-79
2022/03/06 01:46:38;;;;;;;14.30;10.63;;;1.60;99.90;;;;;;5064321;28;20133;-79
2022/03/06 01:49:04;;;;;;;14.68;9.57;;;1.60;99.90;;;;;;5046226;28;20139;-80
2022/03/06 01:51:29;;;;;;;14.13;9.68;;;1.50;99.90;;;;;;5065062;28;20447;-78
2022/03/06 01:53:55;;;;;;;12.52;10.57;;;1.50;99.90;;;;;;5066714;28;20036;-80
2022/03/06 01:56:20;;;;;;;15.43;10.20;;;1.50;99.90;;;;;;5051902;28;20033;-80
2022/03/06 01:58:47;;;;;;;17.92;11.15;;;1.50;99.90;;;;;;5066309;28;20467;-80
2022/03/06 02:01:13;;;;;;;11.25;9.38;;;1.50;99.90;;;;;;5067213;28;20398;-80
2022/03/06 02:03:38;;;;;;;12.82;10.55;;;1.50;99.90;;;;;;5069038;28;20048;-80
2022/03/06 02:06:06;;;;;;;13.70;10.10;;;1.50;99.90;;;;;;5066940;28;20048;-79
2022/03/06 02:08:32;;;;;;;14.82;11.48;;;1.50;99.90;;;;;;5054572;28;20045;-81
2022/03/06 02:10:58;;;;;;;18.00;10.38;;;1.50;99.90;;;;;;5066157;28;20441;-80
2022/03/06 02:13:25;;;;;;;15.63;9.90;;;1.50;99.90;;;;;;5069373;28;20452;-80
2022/03/06 02:15:52;;;;;;;23.95;10.30;;;1.50;99.90;;;;;;5045388;28;20080;-80
2022/03/06 02:18:19;;;;;;;11.95;9.43;;;1.50;99.90;;;;;;5066457;28;20131;-80
2022/03/06 02:20:47;;;;;;;13.35;9.48;;;1.50;99.90;;;;;;5061368;28;20102;-80
2022/03/06 02:23:13;;;;;;;12.25;8.80;;;1.50;99.90;;;;;;5068998;28;20104;-80
2022/03/06 02:25:39;;;;;;;12.07;8.30;;;1.50;99.90;;;;;;5064375;28;20032;-79
2022/03/06 02:28:09;;;;;;;10.43;7.72;;;1.50;99.90;;;;;;5059586;28;20040;-79
2022/03/06 02:30:37;;;;;;;12.18;9.30;;;1.50;99.90;;;;;;5065634;28;20040;-80
2022/03/06 02:33:06;;;;;;;11.07;8.90;;;1.60;99.90;;;;;;5069112;28;20059;-80
2022/03/06 02:35:32;;;;;;;13.07;7.13;;;1.50;99.90;;;;;;5065584;28;20032;-80
2022/03/06 02:37:58;;;;;;;11.32;8.20;;;1.60;99.90;;;;;;5073059;28;20120;-80
2022/03/06 02:40:24;;;;;;;12.43;9.02;;;1.60;99.90;;;;;;5072742;28;20119;-79
2022/03/06 02:42:51;;;;;;;7.95;6.25;;;1.60;99.90;;;;;;5074469;28;20096;-80
2022/03/06 02:45:21;;;;;;;10.43;6.88;;;1.70;99.90;;;;;;5072371;28;20053;-79
2022/03/06 02:47:47;;;;;;;12.75;6.97;;;1.60;99.90;;;;;;5066340;28;20060;-80
2022/03/06 02:50:18;;;;;;;12.18;6.80;;;1.70;99.90;;;;;;5073033;28;20066;-80
2022/03/06 02:52:44;;;;;;;16.73;8.85;;;1.70;99.90;;;;;;5079481;28;20054;-79
2022/03/06 02:55:11;;;;;;;10.18;6.45;;;1.60;99.90;;;;;;5070914;28;20044;-80
2022/03/06 02:57:38;;;;;;;8.10;6.32;;;1.70;99.90;;;;;;5072792;28;20054;-79
2022/03/06 03:00:07;;;;;;;11.55;6.72;;;1.60;99.90;;;;;;5075665;28;20047;-81
2022/03/06 03:02:32;;;;;;;7.63;5.75;;;1.60;99.90;;;;;;5081669;28;20048;-77
2022/03/06 03:04:58;;;;;;;9.23;7.03;;;1.60;99.90;;;;;;5078135;28;20032;-80
2022/03/06 03:07:23;;;;;;;8.40;5.32;;;1.60;99.90;;;;;;5074094;28;20380;-81
2022/03/06 03:09:49;;;;;;;8.77;5.53;;;1.60;99.90;;;;;;5068867;28;20036;-80
2022/03/06 03:12:15;;;;;;;9.90;5.95;;;1.60;99.90;;;;;;5072307;28;20109;-81
2022/03/06 03:14:40;;;;;;;6.65;5.53;;;1.60;99.90;;;;;;5066282;28;20059;-80
2022/03/06 03:17:06;;;;;;;10.85;5.88;;;1.60;99.90;;;;;;5070209;28;20032;-81
2022/03/06 03:19:32;;;;;;;10.90;6.07;;;1.60;99.90;;;;;;5060577;28;20059;-80
2022/03/06 03:21:58;;;;;;;7.68;4.82;;;1.60;99.90;;;;;;5060084;28;20077;-80
2022/03/06 03:24:24;;;;;;;7.70;5.88;;;1.60;99.90;;;;;;5069291;28;20129;-79
2022/03/06 03:26:50;;;;;;;15.52;6.07;;;1.60;99.90;;;;;;5071888;28;20036;-80
2022/03/06 03:29:16;;;;;;;8.40;5.80;;;1.60;99.90;;;;;;5072498;28;20063;-80
2022/03/06 03:31:42;;;;;;;7.70;4.45;;;1.60;99.90;;;;;;5071468;28;20049;-79
2022/03/06 03:34:08;;;;;;;9.38;5.57;;;1.50;99.90;;;;;;5065037;28;20161;-79
2022/03/06 03:36:33;;;;;;;9.73;5.38;;;1.60;99.90;;;;;;5059095;28;20049;-79
2022/03/06 03:38:59;;;;;;;11.32;5.00;;;1.60;99.90;;;;;;5069895;28;20052;-79
2022/03/06 03:41:25;;;;;;;10.15;4.95;;;1.60;99.90;;;;;;5070633;28;20107;-79
2022/03/06 03:43:52;;;;;;;8.02;5.05;;;1.60;99.90;;;;;;5057000;28;20040;-80
2022/03/06 03:46:18;;;;;;;6.97;5.07;;;1.50;99.90;;;;;;5065584;28;20045;-80
2022/03/06 03:48:44;;;;;;;7.53;4.35;;;1.50;99.90;;;;;;5063273;28;20489;-80
2022/03/06 03:51:10;;;;;;;10.38;4.70;;;1.50;99.90;;;;;;5067183;28;20071;-80
2022/03/06 03:53:35;;;;;;;9.73;5.90;;;1.50;99.90;;;;;;5068882;28;20080;-80
2022/03/06 03:56:01;;;;;;;11.55;5.70;;;1.50;99.90;;;;;;5052752;28;20502;-79
2022/03/06 03:58:27;;;;;;;7.45;4.60;;;1.40;99.90;;;;;;5070685;28;20090;-79
2022/03/06 04:00:56;;;;;;;11.05;6.68;;;1.40;99.90;;;;;;5068710;28;20448;-80
2022/03/06 04:03:21;;;;;;;7.97;4.60;;;1.30;99.90;;;;;;5072701;28;20105;-79
2022/03/06 04:05:47;;;;;;;7.55;6.22;;;1.30;99.90;;;;;;5061712;28;20045;-79
2022/03/06 04:08:13;;;;;;;10.68;5.70;;;1.30;99.90;;;;;;5068401;28;20059;-80
2022/03/06 04:10:39;;;;;;;9.25;5.47;;;1.20;99.90;;;;;;5070946;28;20487;-80
2022/03/06 04:13:05;;;;;;;8.95;5.97;;;1.30;99.90;;;;;;5069050;28;20047;-80
2022/03/06 04:15:30;;;;;;;10.93;4.50;;;1.30;99.90;;;;;;5067173;28;20119;-79
2022/03/06 04:17:56;;;;;;;10.23;7.47;;;1.20;99.90;;;;;;5070233;28;20403;-80
2022/03/06 04:20:21;;;;;;;9.10;5.85;;;1.10;99.90;;;;;;5052416;28;20056;-80
2022/03/06 04:22:47;;;;;;;11.32;6.28;;;1.10;99.90;;;;;;5059234;28;20540;-80
2022/03/06 04:25:13;;;;;;;10.65;5.10;;;1.10;99.90;;;;;;5068394;28;20519;-80
2022/03/06 04:27:38;;;;;;;11.88;5.50;;;1.20;99.90;;;;;;5050949;28;20049;-80
2022/03/06 04:30:05;;;;;;;13.32;6.15;;;1.10;99.90;;;;;;5049790;28;20048;-79
2022/03/06 04:32:31;;;;;;;10.57;6.47;;;1.20;99.90;;;;;;5064120;28;20048;-79
2022/03/06 04:34:56;;;;;;;12.88;5.50;;;1.10;99.90;;;;;;5059211;28;20041;-78
2022/03/06 04:37:22;;;;;;;8.40;5.68;;;1.10;99.90;;;;;;5065170;28;20045;-78
2022/03/06 04:39:48;;;;;;;13.68;5.85;;;1.10;99.90;;;;;;5066097;28;20126;-79
2022/03/06 04:42:14;;;;;;;7.25;5.28;;;1.10;99.90;;;;;;5066633;28;20145;-81
2022/03/06 04:44:39;;;;;;;8.38;5.32;;;1.10;99.90;;;;;;5060504;28;20037;-81
2022/03/06 04:47:06;;;;;;;9.55;6.53;;;1.00;99.90;;;;;;5058311;28;20067;-79
2022/03/06 04:49:32;;;;;;;8.82;5.97;;;0.90;99.90;;;;;;5057279;28;20403;-80
2022/03/06 04:51:57;;;;;;;13.20;7.30;;;0.90;99.90;;;;;;5067675;28;20036;-79
2022/03/06 04:54:23;;;;;;;13.43;6.13;;;0.90;99.90;;;;;;5067968;28;20083;-79
2022/03/06 04:56:48;;;;;;;9.65;5.63;;;0.80;99.90;;;;;;5070043;28;20044;-79
2022/03/06 04:59:14;;;;;;;9.98;6.28;;;0.70;99.90;;;;;;5068714;28;20091;-79
2022/03/06 05:01:40;;;;;;;12.23;5.38;;;0.80;99.90;;;;;;5070286;28;20133;-79
2022/03/06 05:04:05;;;;;;;15.45;7.82;;;0.70;99.90;;;;;;5068006;28;20037;-80
2022/03/06 05:06:31;;;;;;;11.55;6.65;;;0.70;99.90;;;;;;5068030;28;20047;-79
2022/03/06 05:08:56;;;;;;;9.32;5.50;;;0.60;99.90;;;;;;5069422;28;20536;-79
2022/03/06 05:11:23;;;;;;;11.57;6.13;;;0.60;99.90;;;;;;5069326;28;20479;-80
2022/03/06 05:13:49;;;;;;;12.77;7.38;;;0.50;99.90;;;;;;5064812;28;20056;-78
2022/03/06 05:16:15;;;;;;;9.23;6.07;;;0.50;99.90;;;;;;5064673;28;20040;-82
2022/03/06 05:18:40;;;;;;;11.88;6.63;;;0.50;99.90;;;;;;5068415;28;20048;-81
2022/03/06 05:21:06;;;;;;;10.38;6.05;;;0.40;99.90;;;;;;5069116;28;20040;-80
2022/03/06 05:23:32;;;;;;;9.35;6.55;;;0.40;99.90;;;;;;5067217;28;20087;-81
2022/03/06 05:25:58;;;;;;;9.70;6.13;;;0.40;99.90;;;;;;5070135;28;20407;-81
2022/03/06 05:28:25;;;;;;;10.70;5.75;;;0.40;99.90;;;;;;5070263;28;20040;-81
2022/03/06 05:30:51;;;;;;;10.57;5.97;;;0.40;99.90;;;;;;5071023;28;20051;-82
2022/03/06 05:33:17;;;;;;;18.52;7.45;;;0.30;99.90;;;;;;5069885;28;20049;-80
2022/03/06 05:35:42;;;;;;;10.57;6.15;;;0.30;99.90;;;;;;5069121;28;20063;-81
2022/03/06 05:38:08;;;;;;;11.57;6.53;;;0.30;99.90;;;;;;5068179;28;20037;-81
2022/03/06 05:40:34;;;;;;;10.05;6.00;;;0.20;99.90;;;;;;5067389;28;20051;-80
2022/03/06 05:42:59;;;;;;;9.02;6.32;;;0.20;99.90;;;;;;5068257;28;20079;-81
2022/03/06 05:45:25;;;;;;;10.00;5.50;;;0.10;99.90;;;;;;5051439;28;20043;-80
2022/03/06 05:47:51;;;;;;;9.00;5.57;;;0.10;99.90;;;;;;5062659;28;20552;-80
2022/03/06 05:50:16;;;;;;;9.90;6.45;;;0.10;99.90;;;;;;5065143;28;20102;-80
2022/03/06 05:52:42;;;;;;;11.55;5.68;;;0.00;99.90;;;;;;5054204;28;20045;-81
2022/03/06 05:55:08;;;;;;;13.23;7.28;;;0.00;99.90;;;;;;5061280;28;20041;-79
2022/03/06 05:57:34;;;;;;;8.65;5.72;;;0.10;99.90;;;;;;5055923;28;20064;-79
2022/03/06 06:00:00;;;;;;;16.83;6.72;;;0.00;99.90;;;;;;5057216;28;20044;-80
2022/03/06 06:02:26;;;;;;;10.30;5.70;;;0.10;99.90;;;;;;5069208;28;20072;-76
2022/03/06 06:04:51;;;;;;;8.82;5.43;;;0.00;99.90;;;;;;5052132;28;20055;-80
2022/03/06 06:07:17;;;;;;;12.38;5.65;;;0.10;99.90;;;;;;5063276;28;20411;-80
2022/03/06 06:09:43;;;;;;;10.40;6.60;;;0.10;99.90;;;;;;5067638;28;20056;-80
2022/03/06 06:12:09;;;;;;;11.65;5.32;;;0.10;99.90;;;;;;5069017;28;20139;-80
2022/03/06 06:14:34;;;;;;;15.38;5.28;;;0.10;99.90;;;;;;5056842;28;20081;-81
2022/03/06 06:17:00;;;;;;;10.98;6.13;;;0.10;99.90;;;;;;5061651;28;20501;-81
2022/03/06 06:19:26;;;;;;;7.93;5.60;;;0.10;99.90;;;;;;5055186;28;20052;-77
2022/03/06 06:21:52;;;;;;;8.75;5.45;;;0.10;99.90;;;;;;5063327;28;20402;-81
2022/03/06 06:24:17;;;;;;;10.32;5.82;;;0.10;99.90;;;;;;5057527;28;20041;-80
2022/03/06 06:26:45;;;;;;;10.82;7.10;;;0.10;99.90;;;;;;5067369;28;20116;-81
2022/03/06 06:29:12;;;;;;;15.10;5.97;;;0.10;99.90;;;;;;5068364;28;20056;-83
2022/03/06 06:31:38;;;;;;;6.88;5.38;;;0.10;99.90;;;;;;5054972;28;20072;-82
2022/03/06 06:34:04;;;;;;;10.00;5.32;;;0.10;99.90;;;;;;5070003;28;20529;-80
2022/03/06 06:36:29;;;;;;;9.85;6.25;;;0.20;99.90;;;;;;5068010;28;20439;-80
2022/03/06 06:38:55;;;;;;;6.93;5.07;;;0.20;99.90;;;;;;5053678;28;20056;-83
2022/03/06 06:41:21;;;;;;;12.60;7.32;;;0.20;99.90;;;;;;5061170;28;20044;-81
2022/03/06 06:43:47;;;;;;;11.45;6.57;;;0.20;99.90;;;;;;5063437;28;20565;-81
2022/03/06 06:46:12;;;;;;;8.52;5.70;;;0.20;99.90;;;;;;5058849;28;20080;-80
2022/03/06 06:48:38;;;;;;;8.30;5.65;;;0.30;99.90;;;;;;5070383;28;20048;-80
2022/03/06 06:51:04;;;;;;;9.82;5.65;;;0.30;99.90;;;;;;5070529;28;20481;-81
2022/03/06 06:53:30;;;;;;;9.20;4.97;;;0.50;99.90;;;;;;5065290;28;20044;-82
2022/03/06 06:55:55;;;;;;;11.40;5.65;;;0.60;99.90;;;;;;5057688;28;20410;-74
2022/03/06 06:58:21;;;;;;;7.05;4.70;;;0.60;99.90;;;;;;5068798;28;20489;-82
2022/03/06 07:00:47;;;;;;;8.13;6.15;;;0.80;99.90;;;;;;5067514;28;20048;-84
2022/03/06 07:03:12;;;;;;;8.50;5.00;;;0.90;99.90;;;;;;5068469;28;20040;-88
2022/03/06 07:05:38;;;;;;;16.42;6.47;;;0.90;99.90;;;;;;5061508;28;20131;-81
2022/03/06 07:08:04;;;;;;;7.38;4.40;;;1.00;99.90;;;;;;5050308;28;20161;-81
2022/03/06 07:10:29;;;;;;;8.13;4.38;;;1.10;99.90;;;;;;5061117;28;20036;-84
2022/03/06 07:12:55;;;;;;;18.45;4.55;;;1.10;99.90;;;;;;5064785;28;20044;-74
2022/03/06 07:15:27;;;;;;;7.43;3.80;;;1.20;99.90;;;;;;5062805;28;20441;-79
2022/03/06 07:17:55;;;;;;;5.32;3.55;;;2.00;99.90;;;;;;5059046;28;20072;-82
2022/03/06 07:20:21;;;;;;;7.65;4.70;;;1.60;99.90;;;;;;5067342;28;20045;-81
2022/03/06 07:22:47;;;;;;;7.70;3.25;;;1.40;99.90;;;;;;5067942;28;20486;-79
2022/03/06 07:25:12;;;;;;;6.25;3.38;;;1.30;99.90;;;;;;5063132;28;20569;-81
2022/03/06 07:27:38;;;;;;;5.50;3.45;;;1.30;99.90;;;;;;5064366;28;20041;-81
2022/03/06 07:30:04;;;;;;;13.85;4.57;;;1.30;99.90;;;;;;5073057;28;20075;-80
2022/03/06 07:32:29;;;;;;;2.85;2.45;;;1.30;99.90;;;;;;5071526;28;20040;-82
2022/03/06 07:34:55;;;;;;;4.80;3.25;;;1.40;99.90;;;;;;5061990;28;20441;-79
2022/03/06 07:37:21;;;;;;;7.20;3.08;;;1.40;99.90;;;;;;5065626;28;20110;-82
2022/03/06 07:39:46;;;;;;;4.05;2.65;;;1.40;99.90;;;;;;5067551;28;20056;-81
2022/03/06 07:42:12;;;;;;;2.85;2.17;;;1.50;99.90;;;;;;5071223;28;20044;-78
2022/03/06 07:44:38;;;;;;;6.95;3.30;;;1.50;99.90;;;;;;5072119;28;20033;-81
2022/03/06 07:47:03;;;;;;;2.90;2.03;;;1.50;99.90;;;;;;5048018;28;20094;-80
2022/03/06 07:49:29;;;;;;;4.57;2.47;;;1.60;99.90;;;;;;5060048;28;20466;-82
2022/03/06 07:51:55;;;;;;;2.50;1.95;;;1.60;99.90;;;;;;5053505;28;20045;-80
2022/03/06 07:54:20;;;;;;;6.32;1.77;;;1.70;99.90;;;;;;5067303;28;20048;-80
2022/03/06 07:56:46;;;;;;;2.08;1.30;;;1.80;99.90;;;;;;5073186;28;20564;-80
2022/03/06 07:59:12;;;;;;;4.50;2.05;;;1.80;99.90;;;;;;5076123;28;20033;-80
2022/03/06 08:01:38;;;;;;;5.22;2.22;;;1.80;99.90;;;;;;5067241;28;20043;-79
2022/03/06 08:04:04;;;;;;;2.85;2.40;;;1.90;99.90;;;;;;5070358;28;20562;-80
2022/03/06 08:06:29;;;;;;;9.70;2.53;;;1.90;99.90;;;;;;5066354;28;20056;-80
2022/03/06 08:08:55;;;;;;;8.20;2.47;;;2.00;99.90;;;;;;5062354;28;20048;-81
2022/03/06 08:11:20;;;;;;;5.18;2.17;;;2.00;99.90;;;;;;5062697;28;20056;-81
2022/03/06 08:13:46;;;;;;;7.32;3.08;;;2.10;99.90;;;;;;5080101;28;20037;-79
2022/03/06 08:16:11;;;;;;;4.97;1.98;;;2.10;99.90;;;;;;5071726;28;20094;-80
2022/03/06 08:18:37;;;;;;;4.03;2.35;;;2.10;99.90;;;;;;5068033;28;20041;-75
2022/03/06 08:21:03;;;;;;;3.63;2.20;;;2.10;99.90;;;;;;5066220;28;20063;-78
2022/03/06 08:23:28;;;;;;;4.75;2.35;;;2.20;99.90;;;;;;5068282;28;20048;-78
2022/03/06 08:25:54;;;;;;;4.40;1.80;;;2.30;99.90;;;;;;5068649;28;20036;-79
2022/03/06 08:28:20;;;;;;;8.07;2.95;;;2.30;99.90;;;;;;5057527;28;20037;-78
2022/03/06 08:30:45;;;;;;;2.47;1.83;;;2.40;99.90;;;;;;5068875;28;20040;-78
2022/03/06 08:33:11;;;;;;;3.90;2.47;;;2.40;99.90;;;;;;5066670;28;20091;-79
2022/03/06 08:35:37;;;;;;;5.43;1.73;;;2.40;99.90;;;;;;5051708;28;20757;-79
2022/03/06 08:38:03;;;;;;;5.63;1.90;;;2.50;99.90;;;;;;5070354;28;20123;-80
2022/03/06 08:40:28;;;;;;;3.83;1.98;;;2.50;99.90;;;;;;5056615;28;20068;-81
2022/03/06 08:42:54;;;;;;;4.55;2.28;;;2.50;99.90;;;;;;5068409;28;20049;-82
2022/03/06 08:45:20;;;;;;;3.67;2.15;;;2.50;99.90;;;;;;5051436;28;20757;-79
2022/03/06 08:47:45;;;;;;;4.15;2.33;;;2.60;99.90;;;;;;5054235;28;20045;-79
2022/03/06 08:50:11;;;;;;;4.57;2.45;;;2.70;99.90;;;;;;5050244;28;20094;-78
2022/03/06 08:52:37;;;;;;;4.32;2.25;;;2.80;99.90;;;;;;5064889;28;20376;-81
2022/03/06 08:55:03;;;;;;;2.92;1.40;;;2.80;99.90;;;;;;5068364;28;20129;-79
2022/03/06 08:57:29;;;;;;;3.25;2.08;;;2.80;99.90;;;;;;5068566;28;20041;-78
2022/03/06 08:59:55;;;;;;;5.78;2.83;;;2.80;99.90;;;;;;5068908;28;20093;-80
2022/03/06 09:02:21;;;;;;;4.47;2.10;;;2.80;99.90;;;;;;5068465;28;20048;-82
2022/03/06 09:04:47;;;;;;;4.40;1.95;;;2.90;99.90;;;;;;5067195;28;20044;-78
2022/03/06 09:07:12;;;;;;;3.08;1.60;;;3.00;99.90;;;;;;5061996;28;20119;-80
2022/03/06 09:09:38;;;;;;;5.68;1.80;;;3.00;99.90;;;;;;5066955;28;20048;-78
2022/03/06 09:12:04;;;;;;;6.47;1.98;;;3.10;99.90;;;;;;5057592;28;20526;-75
2022/03/06 09:14:30;;;;;;;6.55;2.42;;;3.20;99.90;;;;;;5053694;28;20040;-77
2022/03/06 09:16:55;;;;;;;3.47;2.30;;;3.20;99.90;;;;;;5060372;28;20064;-75
2022/03/06 09:19:21;;;;;;;4.80;1.65;;;3.20;99.90;;;;;;5059360;28;20041;-77
2022/03/06 09:21:46;;;;;;;2.33;1.50;;;3.20;99.90;;;;;;5061037;28;20143;-77
2022/03/06 09:24:12;;;;;;;4.35;2.15;;;3.30;99.90;;;;;;5064091;28;20062;-78
2022/03/06 09:26:39;;;;;;;2.75;1.75;;;3.20;99.90;;;;;;5064052;28;20043;-76
2022/03/06 09:29:05;;;;;;;2.55;1.42;;;3.30;99.90;;;;;;5068848;28;20585;-76
2022/03/06 09:31:31;;;;;;;3.53;1.92;;;3.20;99.90;;;;;;5063967;28;20064;-76
2022/03/06 09:33:57;;;;;;;5.40;1.92;;;3.40;99.90;;;;;;5063609;28;20040;-77
2022/03/06 09:36:23;;;;;;;4.45;2.08;;;3.40;99.90;;;;;;5069047;28;20047;-77
2022/03/06 09:38:49;;;;;;;6.72;2.70;;;3.50;99.90;;;;;;5063273;28;20482;-77
2022/03/06 09:41:17;;;;;;;3.38;1.73;;;3.50;99.90;;;;;;5067262;28;20089;-76
2022/03/06 09:43:43;;;;;;;9.90;3.00;;;3.40;99.90;;;;;;5054335;28;20041;-77
2022/03/06 09:46:09;;;;;;;3.30;2.00;;;3.50;99.90;;;;;;5069234;28;20058;-76
2022/03/06 09:48:36;;;;;;;4.60;2.35;;;3.60;99.90;;;;;;5064421;28;20052;-76
2022/03/06 09:51:03;;;;;;;6.63;2.25;;;3.50;99.90;;;;;;5066222;28;20074;-75
2022/03/06 09:53:29;;;;;;;4.35;2.22;;;3.60;99.90;;;;;;5068713;28;20510;-81
2022/03/06 09:55:55;;;;;;;4.32;2.03;;;3.70;99.90;;;;;;5051664;28;20075;-80
2022/03/06 09:58:21;;;;;;;4.18;1.92;;;3.60;99.90;;;;;;5068849;28;20033;-82
2022/03/06 10:00:46;;;;;;;3.72;2.53;;;3.60;99.90;;;;;;5067106;28;20048;-81
2022/03/06 10:03:20;;;;;;;8.70;2.13;;;3.60;99.90;;;;;;5070379;28;20052;-79
2022/03/06 10:05:46;;;;;;;5.88;2.70;;;3.60;99.90;;;;;;5067384;28;20052;-81
2022/03/06 10:08:22;;;;;;;3.30;1.80;;;3.80;99.90;;;;;;5059027;28;20425;-79
2022/03/06 10:11:01;;;;;;;2.80;2.15;;;3.90;99.90;;;;;;5049985;28;20037;-81
2022/03/06 10:13:29;;;;;;;3.40;1.75;;;4.20;99.90;;;;;;5068179;28;20048;-77
2022/03/06 10:16:04;;;;;;;3.45;1.70;;;4.00;99.90;;;;;;5059885;28;20452;-74
2022/03/06 10:18:32;;;;;;;5.05;1.90;;;4.00;99.90;;;;;;5055352;28;20044;-82
2022/03/06 10:21:23;;;;;;;3.25;2.00;;;4.10;99.90;;;;;;5065307;28;20067;-82
2022/03/06 10:23:52;;;;;;;6.88;2.63;;;4.00;99.90;;;;;;5060863;28;20530;-84
2022/03/06 10:26:22;;;;;;;8.63;3.30;;;4.10;99.90;;;;;;5062327;28;20036;-81
2022/03/06 10:28:56;;;;;;;3.30;1.95;;;4.20;99.90;;;;;;5060632;28;20049;-82
2022/03/06 10:31:23;;;;;;;3.63;1.40;;;4.30;99.90;;;;;;5049987;28;20095;-82
2022/03/06 10:34:10;;;;;;;3.83;2.17;;;4.30;99.90;;;;;;5048068;28;20056;-79
2022/03/06 10:36:38;;;;;;;8.40;2.92;;;4.20;99.90;;;;;;5050344;28;20041;-81
2022/03/06 10:39:09;;;;;;;3.78;2.40;;;4.20;99.90;;;;;;5053937;28;20037;-80
2022/03/06 10:41:38;;;;;;;5.40;2.63;;;4.30;99.90;;;;;;5049533;28;20045;-82
2022/03/06 10:44:05;;;;;;;4.43;1.75;;;4.20;99.90;;;;;;5050321;28;20041;-83
2022/03/06 10:46:33;;;;;;;5.22;2.53;;;4.30;99.90;;;;;;5049883;28;20053;-82
2022/03/06 10:49:07;;;;;;;4.97;2.17;;;4.20;99.90;;;;;;5057129;28;20052;-81
2022/03/06 10:51:44;;;;;;;4.43;1.90;;;4.20;99.90;;;;;;5056984;28;20044;-81
2022/03/06 10:54:10;;;;;;;3.88;2.25;;;4.30;99.90;;;;;;5050041;28;20087;-82
2022/03/06 10:56:36;;;;;;;3.95;2.03;;;4.30;99.90;;;;;;5049971;28;20510;-80
2022/03/06 10:59:06;;;;;;;5.47;2.47;;;4.60;99.90;;;;;;5060199;28;20041;-80
2022/03/06 11:01:33;;;;;;;5.32;2.30;;;4.40;99.90;;;;;;5071104;28;20041;-84
2022/03/06 11:04:01;;;;;;;4.13;1.83;;;4.60;99.90;;;;;;5077649;28;20389;-84
2022/03/06 11:06:28;;;;;;;4.35;2.50;;;4.70;99.90;;;;;;5069977;28;20040;-80
2022/03/06 11:08:54;;;;;;;3.92;1.85;;;4.70;99.90;;;;;;5072705;28;20056;-82
2022/03/06 11:11:21;;;;;;;6.20;2.95;;;4.80;99.90;;;;;;5073711;28;20394;-84
2022/03/06 11:13:47;;;;;;;4.18;2.28;;;4.90;99.90;;;;;;5073354;28;20487;-84
2022/03/06 11:16:14;;;;;;;3.15;2.40;;;4.90;99.90;;;;;;5073640;28;20505;-82
2022/03/06 11:18:40;;;;;;;3.00;1.30;;;5.00;99.90;;;;;;5073393;28;20055;-83
2022/03/06 11:21:06;;;;;;;5.68;2.70;;;4.90;99.90;;;;;;5051708;28;20120;-84
2022/03/06 11:23:38;;;;;;;3.78;2.70;;;4.90;99.90;;;;;;5053686;28;20041;-84
2022/03/06 11:26:13;;;;;;;4.05;2.10;;;5.00;99.90;;;;;;5067939;28;20048;-80
2022/03/06 11:28:57;;;;;;;8.05;2.13;;;4.80;99.90;;;;;;5068783;28;20052;-85
2022/03/06 11:31:23;;;;;;;3.80;2.05;;;5.10;99.90;;;;;;5072025;28;20055;-83
2022/03/06 11:33:57;;;;;;;3.45;2.20;;;5.00;99.90;;;;;;5060257;28;20049;-84
2022/03/06 11:36:27;;;;;;;4.40;2.47;;;5.50;99.90;;;;;;5062129;28;20048;-82
2022/03/06 11:38:54;;;;;;;5.03;2.17;;;5.80;99.90;;;;;;5053797;28;20053;-81
2022/03/06 11:41:20;;;;;;;3.05;1.70;;;5.90;99.90;;;;;;5052937;28;20044;-82
2022/03/06 11:43:48;;;;;;;3.75;1.70;;;5.80;99.90;;;;;;5072162;28;20063;-83
2022/03/06 11:46:21;;;;;;;6.85;1.95;;;5.80;99.90;;;;;;5071231;28;20045;-81
2022/03/06 11:48:47;;;;;;;3.13;1.42;;;5.80;99.90;;;;;;5073385;28;20055;-81
2022/03/06 11:51:12;;;;;;;4.10;2.00;;;5.80;99.90;;;;;;5072130;28;20119;-81
2022/03/06 11:53:56;;;;;;;5.38;2.10;;;5.80;99.90;;;;;;5071209;28;20052;-81
2022/03/06 11:56:31;;;;;;;4.15;2.53;;;5.70;99.90;;;;;;5071854;28;20041;-80
2022/03/06 11:59:04;;;;;;;3.03;1.55;;;5.90;99.90;;;;;;5066253;28;20051;-80
2022/03/06 12:01:40;;;;;;;5.78;2.97;;;6.00;99.90;;;;;;5051936;28;20118;-80
2022/03/06 12:04:09;;;;;;;3.90;2.47;;;5.80;99.90;;;;;;5049622;28;20110;-81
2022/03/06 12:06:46;;;;;;;5.45;2.05;;;5.80;99.90;;;;;;5051542;28;20037;-83
2022/03/06 12:09:14;;;;;;;9.30;3.03;;;5.70;99.90;;;;;;5050813;28;20056;-80
2022/03/06 12:11:40;;;;;;;4.07;2.60;;;5.70;99.90;;;;;;5051591;28;20115;-80
2022/03/06 12:14:22;;;;;;;4.85;2.30;;;5.90;99.90;;;;;;5050618;28;20055;-80
2022/03/06 12:17:02;;;;;;;6.43;2.00;;;5.70;99.90;;;;;;5055704;28;20098;-82
2022/03/06 12:19:35;;;;;;;4.53;2.50;;;5.60;99.90;;;;;;5050061;28;20045;-82
2022/03/06 12:22:29;;;;;;;3.60;2.47;;;5.70;99.90;;;;;;5052475;28;20590;-80
2022/03/06 12:25:04;;;;;;;2.53;2.13;;;5.60;99.90;;;;;;5046548;28;20077;-81
2022/03/06 12:27:29;;;;;;;8.48;3.25;;;5.60;99.90;;;;;;5049878;28;20041;-80
2022/03/06 12:29:57;;;;;;;2.70;1.58;;;5.80;99.90;;;;;;5051415;28;20056;-81
2022/03/06 12:32:25;;;;;;;4.95;2.63;;;5.80;99.90;;;;;;5063236;28;20039;-81
2022/03/06 12:35:05;;;;;;;2.53;1.85;;;5.90;99.90;;;;;;5069123;28;20101;-82
2022/03/06 12:37:33;;;;;;;5.80;2.28;;;5.80;99.90;;;;;;5052716;28;20052;-81
2022/03/06 12:40:00;;;;;;;4.75;2.53;;;5.80;99.90;;;;;;5069631;28;20032;-82
2022/03/06 12:42:31;;;;;;;4.40;2.33;;;6.00;99.90;;;;;;5071413;28;20083;-76
2022/03/06 12:45:00;;;;;;;4.03;2.15;;;5.90;99.90;;;;;;5071435;28;20531;-81
2022/03/06 12:47:29;;;;;;;4.90;1.70;;;5.90;99.90;;;;;;5060142;28;20053;-79
2022/03/06 12:49:56;;;;;;;7.07;2.55;;;6.00;99.90;;;;;;5051110;28;20049;-80